NCAR-RAP Real-Time Weather Data

Output produced by METARs form (23 February 2020  02:04 UTC)
found at http://weather.rap.ucar.edu/surface/
 
KPVD 230151Z 26004KT 10SM CLR 02/M09 A3018 RMK AO2 SLP218 T00171089
KPVD 230051Z 25006KT 10SM CLR 03/M09 A3016 RMK AO2 SLP212 T00281089
KPVD 222351Z 25004KT 10SM CLR 04/M12 A3015 RMK AO2 SLP209 T00441117 10089 20044 53019